createdAt,value
2018-08-22T00:00:00.100Z,2.50
2018-08-22T00:01:00.334Z,2.60
2018-08-22T00:02:00.141Z,3.00
2018-08-22T00:03:00.244Z,2.40
2018-08-22T00:04:00.177Z,2.80
2018-08-22T00:05:00.271Z,2.50
2018-08-22T00:06:00.166Z,3.00
2018-08-22T00:07:00.141Z,2.60
2018-08-22T00:08:00.110Z,2.80
2018-08-22T00:09:00.217Z,2.50
2018-08-22T00:10:01.041Z,2.30
2018-08-22T00:11:01.033Z,2.80
2018-08-22T00:12:00.121Z,2.60
2018-08-22T00:13:00.210Z,2.70
2018-08-22T00:14:00.184Z,2.80
2018-08-22T00:15:00.258Z,2.60
2018-08-22T00:16:00.188Z,2.60
2018-08-22T00:17:00.219Z,3.00
2018-08-22T00:18:00.304Z,2.50
2018-08-22T00:19:00.240Z,2.50
2018-08-22T00:20:00.241Z,2.50
2018-08-22T00:21:00.223Z,2.80
2018-08-22T00:22:00.231Z,2.60
2018-08-22T00:23:00.160Z,2.90
2018-08-22T00:24:00.231Z,3.00
2018-08-22T00:25:00.158Z,2.70
2018-08-22T00:26:00.251Z,3.00
2018-08-22T00:27:00.193Z,2.60
2018-08-22T00:28:00.188Z,2.50
2018-08-22T00:29:00.220Z,2.40
2018-08-22T00:30:00.193Z,2.50
2018-08-22T00:31:00.241Z,2.60
2018-08-22T00:32:00.214Z,2.80
2018-08-22T00:33:00.182Z,3.00
2018-08-22T00:34:00.187Z,2.80
2018-08-22T00:35:00.279Z,2.70
2018-08-22T00:36:00.184Z,2.80
2018-08-22T00:37:00.250Z,3.10
2018-08-22T00:38:00.236Z,2.80
2018-08-22T00:39:00.264Z,3.00
2018-08-22T00:40:00.198Z,2.80
2018-08-22T00:41:00.373Z,2.60
2018-08-22T00:42:00.208Z,3.00
2018-08-22T00:43:00.367Z,2.90
2018-08-22T00:44:00.272Z,3.10
2018-08-22T00:45:00.248Z,2.90
2018-08-22T00:46:00.223Z,2.60
2018-08-22T00:47:00.238Z,3.20
2018-08-22T00:48:01.051Z,3.20
2018-08-22T00:49:00.226Z,3.20
2018-08-22T00:50:00.281Z,2.90
2018-08-22T00:51:00.300Z,3.30
2018-08-22T00:52:00.379Z,2.90
2018-08-22T00:53:00.254Z,3.20
2018-08-22T00:54:00.562Z,3.20
2018-08-22T00:55:00.291Z,2.90
2018-08-22T00:56:00.390Z,3.30
2018-08-22T00:57:00.329Z,3.10
2018-08-22T00:58:00.281Z,3.30
2018-08-22T00:59:00.263Z,3.10
2018-08-22T01:00:00.263Z,3.00
2018-08-22T01:01:00.471Z,3.00
2018-08-22T01:02:00.455Z,3.20
2018-08-22T01:03:00.266Z,3.10
2018-08-22T01:04:00.255Z,2.90
2018-08-22T01:05:00.281Z,3.10
2018-08-22T01:06:00.280Z,3.10
2018-08-22T01:07:00.290Z,2.80
2018-08-22T01:08:00.294Z,2.80
2018-08-22T01:09:00.287Z,3.00
2018-08-22T01:10:00.289Z,3.10
2018-08-22T01:11:00.319Z,3.10
2018-08-22T01:12:00.284Z,3.00
2018-08-22T01:13:00.293Z,3.10
2018-08-22T01:14:01.061Z,3.20
2018-08-22T01:15:00.297Z,3.00
2018-08-22T01:16:00.316Z,3.10
2018-08-22T01:17:00.300Z,2.90
2018-08-22T01:18:00.315Z,3.10
2018-08-22T01:19:00.337Z,3.10
2018-08-22T01:20:00.334Z,3.20
2018-08-22T01:21:00.319Z,2.70
2018-08-22T01:22:00.301Z,3.20
2018-08-22T01:23:00.380Z,2.80
2018-08-22T01:24:00.335Z,3.40
2018-08-22T01:25:00.334Z,3.40
2018-08-22T01:26:00.323Z,3.30
2018-08-22T01:27:00.380Z,3.20
2018-08-22T01:28:00.314Z,3.30
2018-08-22T01:29:00.343Z,3.00
2018-08-22T01:30:00.340Z,3.40
2018-08-22T01:31:00.345Z,3.50
2018-08-22T01:32:00.390Z,3.30
2018-08-22T01:33:00.358Z,3.30
2018-08-22T01:34:00.393Z,3.40
2018-08-22T01:35:00.407Z,3.10
2018-08-22T01:36:00.345Z,3.30
2018-08-22T01:37:00.356Z,3.20
2018-08-22T01:38:00.351Z,3.00
2018-08-22T01:39:00.427Z,3.80
2018-08-22T01:40:00.384Z,3.40
2018-08-22T01:41:00.373Z,3.50
2018-08-22T01:42:01.075Z,3.40
2018-08-22T01:43:00.362Z,3.60
2018-08-22T01:44:00.374Z,3.90
2018-08-22T01:45:00.384Z,3.90
2018-08-22T01:46:00.373Z,3.30
2018-08-22T01:47:00.365Z,3.70
2018-08-22T01:48:00.404Z,3.60
2018-08-22T01:49:00.407Z,3.50
2018-08-22T01:50:00.377Z,3.30
2018-08-22T01:51:00.410Z,3.30
2018-08-22T01:52:00.390Z,4.20
2018-08-22T01:53:00.395Z,3.40
2018-08-22T01:54:00.384Z,3.50
2018-08-22T01:55:00.403Z,3.70
2018-08-22T01:56:00.399Z,3.30
2018-08-22T01:57:00.462Z,3.60
2018-08-22T01:58:00.413Z,3.50
2018-08-22T01:59:00.413Z,3.30
2018-08-22T02:00:00.414Z,3.60
2018-08-22T02:01:00.409Z,3.80
2018-08-22T02:02:00.427Z,3.90
2018-08-22T02:03:00.465Z,3.50
2018-08-22T02:04:00.436Z,3.50
2018-08-22T02:05:00.430Z,4.00
2018-08-22T02:06:00.435Z,3.50
2018-08-22T02:07:00.440Z,3.80
2018-08-22T02:08:00.541Z,3.60
2018-08-22T02:09:00.429Z,3.50
2018-08-22T02:10:00.484Z,3.70
2018-08-22T02:11:00.470Z,4.00
2018-08-22T02:12:00.465Z,3.60
2018-08-22T02:13:00.531Z,3.50
2018-08-22T02:14:00.445Z,4.00
2018-08-22T02:15:00.451Z,3.60
2018-08-22T02:16:00.444Z,3.80
2018-08-22T02:17:00.457Z,4.10
2018-08-22T02:18:00.462Z,3.90
2018-08-22T02:19:00.477Z,3.90
2018-08-22T02:20:00.462Z,3.90
2018-08-22T02:21:00.493Z,3.80
2018-08-22T02:22:00.470Z,4.00
2018-08-22T02:23:00.481Z,4.00
2018-08-22T02:24:00.484Z,4.00
2018-08-22T02:25:00.556Z,4.00
2018-08-22T02:26:01.090Z,3.90
2018-08-22T02:27:00.495Z,3.90
2018-08-22T02:28:00.503Z,4.00
2018-08-22T02:29:00.494Z,3.80
2018-08-22T02:30:00.517Z,4.20
2018-08-22T02:31:00.516Z,3.70
2018-08-22T02:32:00.512Z,4.30
2018-08-22T02:33:00.541Z,4.10
2018-08-22T02:34:00.513Z,3.90
2018-08-22T02:35:00.527Z,3.80
2018-08-22T02:36:00.510Z,4.40
2018-08-22T02:37:00.542Z,4.10
2018-08-22T02:38:00.496Z,3.80
2018-08-22T02:39:00.512Z,4.00
2018-08-22T02:40:00.525Z,4.40
2018-08-22T02:41:00.518Z,3.90
2018-08-22T02:42:00.548Z,4.10
2018-08-22T02:43:00.538Z,4.20
2018-08-22T02:44:00.508Z,4.00
2018-08-22T02:45:00.551Z,4.00
2018-08-22T02:46:00.528Z,4.00
2018-08-22T02:47:00.577Z,4.50
2018-08-22T02:48:00.537Z,4.40
2018-08-22T02:49:01.101Z,4.50
2018-08-22T02:50:00.535Z,4.30
2018-08-22T02:51:00.608Z,4.30
2018-08-22T02:52:00.559Z,4.40
2018-08-22T02:53:00.541Z,4.30
2018-08-22T02:54:00.581Z,4.30
2018-08-22T02:55:00.551Z,4.50
2018-08-22T02:56:00.563Z,4.50
2018-08-22T02:57:00.618Z,4.40
2018-08-22T02:58:00.548Z,4.60
2018-08-22T02:59:00.574Z,4.60
2018-08-22T03:00:00.580Z,4.40
2018-08-22T03:01:00.580Z,4.30
2018-08-22T03:02:00.567Z,4.20
2018-08-22T03:03:00.573Z,4.40
2018-08-22T03:04:00.569Z,4.40
2018-08-22T03:05:00.567Z,4.30
2018-08-22T03:06:00.601Z,4.40
2018-08-22T03:07:00.590Z,4.00
2018-08-22T03:08:00.577Z,4.70
2018-08-22T03:09:00.604Z,4.20
2018-08-22T03:10:00.635Z,4.40
2018-08-22T03:11:00.595Z,4.50
2018-08-22T03:12:00.653Z,4.50
2018-08-22T03:13:00.636Z,4.10
2018-08-22T03:14:00.667Z,4.70
2018-08-22T03:15:00.617Z,4.30
2018-08-22T03:16:00.613Z,4.40
2018-08-22T03:17:00.599Z,4.70
2018-08-22T03:18:00.620Z,4.70
2018-08-22T03:19:00.599Z,4.70
2018-08-22T03:20:01.115Z,4.30
2018-08-22T03:21:00.656Z,4.90
2018-08-22T03:22:00.652Z,4.50
2018-08-22T03:23:00.624Z,4.70
2018-08-22T03:24:00.624Z,4.70
2018-08-22T03:25:00.641Z,4.80
2018-08-22T03:26:00.710Z,5.10
2018-08-22T03:27:00.631Z,4.40
2018-08-22T03:28:00.669Z,4.70
2018-08-22T03:29:00.667Z,4.30
2018-08-22T03:30:01.119Z,4.60
2018-08-22T03:31:00.679Z,4.30
2018-08-22T03:32:00.654Z,4.40
2018-08-22T03:33:00.657Z,4.80
2018-08-22T03:34:00.696Z,5.00
2018-08-22T03:35:00.676Z,4.50
2018-08-22T03:36:00.679Z,4.60
2018-08-22T03:37:00.667Z,4.80
2018-08-22T03:38:00.695Z,4.70
2018-08-22T03:39:00.686Z,4.70
2018-08-22T03:40:00.661Z,4.60
2018-08-22T03:41:00.653Z,4.50
2018-08-22T03:42:00.744Z,4.70
2018-08-22T03:43:00.675Z,5.20
2018-08-22T03:44:00.663Z,4.60
2018-08-22T03:45:00.669Z,5.10
2018-08-22T03:46:01.623Z,4.50
2018-08-22T03:47:00.709Z,4.50
2018-08-22T03:48:00.696Z,4.80
2018-08-22T03:49:00.704Z,4.80
2018-08-22T03:50:00.683Z,4.90
2018-08-22T03:51:00.746Z,4.50
2018-08-22T03:52:00.723Z,4.90
2018-08-22T03:53:00.708Z,4.80
2018-08-22T03:54:00.715Z,4.70
2018-08-22T03:55:00.703Z,4.90
2018-08-22T03:56:00.718Z,4.90
2018-08-22T03:57:00.718Z,5.00
2018-08-22T03:58:00.728Z,4.60
2018-08-22T03:59:00.727Z,5.00
2018-08-22T04:00:00.736Z,4.70
2018-08-22T04:01:01.649Z,4.80
2018-08-22T04:02:00.747Z,5.10
2018-08-22T04:03:00.725Z,4.90
2018-08-22T04:04:00.717Z,4.90
2018-08-22T04:05:00.717Z,4.90
2018-08-22T04:06:00.770Z,4.50
2018-08-22T04:07:00.718Z,4.90
2018-08-22T04:08:00.740Z,4.80
2018-08-22T04:09:00.768Z,5.10
2018-08-22T04:10:00.771Z,5.10
2018-08-22T04:11:00.741Z,5.10
2018-08-22T04:12:00.747Z,5.30
2018-08-22T04:13:00.735Z,5.10
2018-08-22T04:14:00.829Z,5.10
2018-08-22T04:15:00.775Z,5.10
2018-08-22T04:16:00.768Z,4.40
2018-08-22T04:17:00.766Z,5.00
2018-08-22T04:18:00.796Z,5.00
2018-08-22T04:19:00.806Z,5.20
2018-08-22T04:20:00.747Z,4.90
2018-08-22T04:21:00.794Z,5.00
2018-08-22T04:22:00.795Z,5.10
2018-08-22T04:23:00.781Z,5.20
2018-08-22T04:24:00.794Z,5.20
2018-08-22T04:25:00.810Z,5.30
2018-08-22T04:26:00.782Z,5.50
2018-08-22T04:27:00.821Z,5.30
2018-08-22T04:28:00.795Z,4.70
2018-08-22T04:29:01.643Z,5.00
2018-08-22T04:30:00.824Z,5.60
2018-08-22T04:31:00.844Z,5.00
2018-08-22T04:32:00.808Z,5.60
2018-08-22T04:33:00.812Z,5.10
2018-08-22T04:34:00.818Z,4.90
2018-08-22T04:35:00.802Z,5.20
2018-08-22T04:36:00.830Z,5.00
2018-08-22T04:37:01.645Z,5.30
2018-08-22T04:38:00.814Z,4.80
2018-08-22T04:39:00.850Z,5.10
2018-08-22T04:40:00.821Z,5.30
2018-08-22T04:41:00.819Z,5.00
2018-08-22T04:42:00.805Z,5.40
2018-08-22T04:43:00.841Z,5.30
2018-08-22T04:44:00.824Z,5.60
2018-08-22T04:45:00.826Z,5.40
2018-08-22T04:46:00.820Z,5.60
2018-08-22T04:47:00.860Z,5.00
2018-08-22T04:48:00.847Z,5.50
2018-08-22T04:49:00.828Z,5.30
2018-08-22T04:50:00.864Z,5.00
2018-08-22T04:51:00.912Z,5.30
2018-08-22T04:52:01.890Z,5.30
2018-08-22T04:53:01.073Z,5.40
2018-08-22T04:54:00.884Z,5.30
2018-08-22T04:55:01.685Z,5.00
2018-08-22T04:56:01.013Z,5.60
2018-08-22T04:57:00.888Z,5.30
2018-08-22T04:58:01.057Z,5.50
2018-08-22T04:59:01.059Z,5.30
2018-08-22T05:00:01.255Z,5.30
2018-08-22T05:01:01.022Z,5.60
2018-08-22T05:02:00.936Z,5.20
2018-08-22T05:03:00.987Z,5.30
2018-08-22T05:04:00.922Z,5.30
2018-08-22T05:05:01.041Z,5.20
2018-08-22T05:06:00.971Z,5.30
2018-08-22T05:07:01.082Z,5.30
2018-08-22T05:08:01.101Z,5.20
2018-08-22T05:09:01.291Z,5.50
2018-08-22T05:10:01.430Z,5.10
2018-08-22T05:11:01.093Z,5.20
2018-08-22T05:12:01.897Z,5.90
2018-08-22T05:13:01.329Z,4.80
2018-08-22T05:14:01.807Z,5.20
2018-08-22T05:15:01.013Z,5.00
2018-08-22T05:16:00.999Z,5.10
2018-08-22T05:17:01.752Z,5.70
2018-08-22T05:18:00.953Z,5.20
2018-08-22T05:19:01.285Z,5.40
2018-08-22T05:20:01.115Z,5.30
2018-08-22T05:21:01.007Z,5.30
2018-08-22T05:22:01.081Z,5.60
2018-08-22T05:23:03.969Z,5.70
2018-08-22T05:24:01.033Z,5.60
2018-08-22T05:25:01.292Z,5.00
2018-08-22T05:26:01.192Z,5.80
2018-08-22T05:27:01.089Z,5.70
2018-08-22T05:28:01.070Z,5.40
2018-08-22T05:29:01.033Z,5.20
2018-08-22T05:30:02.134Z,5.60
2018-08-22T05:31:01.112Z,5.70
2018-08-22T05:32:01.024Z,5.10
2018-08-22T05:33:01.096Z,5.50
2018-08-22T05:34:01.312Z,4.90
2018-08-22T05:35:01.074Z,6.20
2018-08-22T05:36:01.672Z,5.50
2018-08-22T05:37:01.134Z,5.40
2018-08-22T05:38:01.081Z,5.40
2018-08-22T05:39:01.359Z,5.50
2018-08-22T05:40:01.059Z,5.20
2018-08-22T05:41:01.241Z,5.60
2018-08-22T05:42:01.310Z,5.60
2018-08-22T05:43:01.739Z,5.70
2018-08-22T05:44:01.225Z,5.50
2018-08-22T05:45:01.087Z,5.30
2018-08-22T05:46:01.070Z,5.30
2018-08-22T05:47:01.674Z,6.10
2018-08-22T05:48:01.638Z,5.50
2018-08-22T05:49:01.280Z,5.40
2018-08-22T05:50:01.048Z,5.40
2018-08-22T05:51:01.023Z,5.40
2018-08-22T05:52:01.172Z,5.60
2018-08-22T05:53:01.092Z,5.30
2018-08-22T05:54:01.133Z,5.10
2018-08-22T05:55:01.285Z,5.30
2018-08-22T05:56:01.212Z,5.50
2018-08-22T05:57:01.095Z,5.60
2018-08-22T05:58:01.101Z,5.90
2018-08-22T05:59:01.037Z,6.10
2018-08-22T06:00:01.048Z,5.70
2018-08-22T06:01:01.125Z,5.90
2018-08-22T06:02:01.693Z,5.30
2018-08-22T06:03:01.131Z,5.50
2018-08-22T06:04:01.070Z,5.70
2018-08-22T06:05:01.337Z,5.70
2018-08-22T06:06:01.228Z,5.40
2018-08-22T06:07:01.155Z,5.50
2018-08-22T06:08:01.253Z,6.00
2018-08-22T06:09:01.259Z,5.60
2018-08-22T06:10:04.354Z,5.30
2018-08-22T06:11:01.176Z,5.60
2018-08-22T06:12:01.094Z,5.40
2018-08-22T06:13:01.093Z,5.60
2018-08-22T06:14:01.065Z,5.70
2018-08-22T06:15:01.110Z,5.30
2018-08-22T06:16:01.099Z,5.60
2018-08-22T06:17:01.072Z,5.00
2018-08-22T06:18:01.114Z,5.50
2018-08-22T06:19:01.114Z,5.10
2018-08-22T06:20:01.078Z,4.90
2018-08-22T06:21:01.098Z,5.20
2018-08-22T06:22:01.115Z,5.50
2018-08-22T06:23:01.148Z,5.10
2018-08-22T06:24:01.187Z,5.30
2018-08-22T06:25:01.116Z,5.70
2018-08-22T06:26:01.109Z,5.20
2018-08-22T06:27:01.116Z,5.50
2018-08-22T06:28:01.132Z,5.40
2018-08-22T06:29:01.144Z,5.90
2018-08-22T06:30:01.149Z,5.20
2018-08-22T06:31:01.149Z,5.80
2018-08-22T06:32:01.151Z,5.60
2018-08-22T06:33:01.268Z,5.40
2018-08-22T06:34:01.187Z,5.50
2018-08-22T06:35:01.160Z,5.50
2018-08-22T06:36:01.160Z,5.20
2018-08-22T06:37:01.197Z,6.30
2018-08-22T06:38:01.219Z,5.70
2018-08-22T06:39:01.176Z,5.80
2018-08-22T06:40:01.224Z,5.90
2018-08-22T06:41:01.224Z,5.90
2018-08-22T06:42:01.221Z,5.80
2018-08-22T06:43:01.233Z,5.40
2018-08-22T06:44:02.775Z,6.00
2018-08-22T06:45:01.244Z,5.60
2018-08-22T06:46:01.294Z,5.30
2018-08-22T06:47:01.259Z,5.40
2018-08-22T06:48:01.451Z,5.60
2018-08-22T06:49:01.246Z,5.90
2018-08-22T06:50:01.267Z,5.70
2018-08-22T06:51:01.294Z,5.50
2018-08-22T06:52:01.279Z,5.60
2018-08-22T06:53:01.293Z,5.70
2018-08-22T06:54:01.393Z,5.50
2018-08-22T06:55:01.367Z,5.40
2018-08-22T06:56:01.300Z,6.00
2018-08-22T06:57:01.459Z,5.40
2018-08-22T06:58:01.343Z,6.00
2018-08-22T06:59:01.440Z,5.30
2018-08-22T07:00:01.432Z,5.20
2018-08-22T07:01:01.354Z,6.00
2018-08-22T07:02:01.436Z,5.80
2018-08-22T07:03:01.372Z,5.70
2018-08-22T07:04:01.369Z,5.30
2018-08-22T07:05:01.489Z,5.70
2018-08-22T07:06:01.390Z,5.30
2018-08-22T07:07:02.224Z,6.10
2018-08-22T07:08:01.581Z,5.70
2018-08-22T07:09:01.590Z,5.80
2018-08-22T07:10:01.506Z,5.70
2018-08-22T07:11:02.225Z,6.50
2018-08-22T07:12:01.442Z,6.10
2018-08-22T07:13:01.467Z,6.20
2018-08-22T07:14:01.535Z,5.90
2018-08-22T07:15:01.472Z,6.10
2018-08-22T07:16:01.488Z,6.30
2018-08-22T07:17:01.501Z,6.80
2018-08-22T07:18:01.587Z,7.20
2018-08-22T07:19:01.576Z,6.20
2018-08-22T07:20:01.540Z,6.20
2018-08-22T07:21:01.564Z,5.90
2018-08-22T07:22:01.671Z,6.30
2018-08-22T07:23:01.532Z,6.80
2018-08-22T07:24:01.541Z,6.00
2018-08-22T07:25:01.513Z,6.00
2018-08-22T07:26:01.568Z,5.90
2018-08-22T07:27:01.593Z,5.80
2018-08-22T07:28:02.483Z,5.70
2018-08-22T07:29:01.545Z,5.70
2018-08-22T07:30:01.586Z,5.60
2018-08-22T07:31:01.575Z,5.20
2018-08-22T07:32:01.653Z,5.50
2018-08-22T07:33:01.576Z,5.40
2018-08-22T07:34:01.594Z,4.90
2018-08-22T07:35:03.249Z,5.20
2018-08-22T07:36:01.736Z,5.20
2018-08-22T07:37:04.449Z,4.80
2018-08-22T07:38:04.494Z,5.80
2018-08-22T07:39:03.236Z,5.10
2018-08-22T07:40:01.921Z,5.80
2018-08-22T07:41:04.540Z,5.60
2018-08-22T07:42:08.939Z,5.60
2018-08-22T07:43:07.489Z,5.50
2018-08-22T07:44:03.431Z,5.10
2018-08-22T07:45:01.758Z,4.80
2018-08-22T07:46:03.382Z,5.00
2018-08-22T07:47:01.861Z,5.50
2018-08-22T07:48:01.680Z,5.20
2018-08-22T07:49:04.675Z,5.10
2018-08-22T07:50:01.783Z,5.00
2018-08-22T07:51:01.767Z,4.80
2018-08-22T07:52:01.842Z,4.50
2018-08-22T07:53:01.779Z,4.80
2018-08-22T07:54:01.748Z,4.90
2018-08-22T07:55:02.191Z,4.90
2018-08-22T07:56:01.763Z,4.30
2018-08-22T07:57:01.782Z,4.70
2018-08-22T07:58:01.789Z,4.60
2018-08-22T07:59:01.754Z,4.70
2018-08-22T08:00:01.854Z,4.80
2018-08-22T08:01:01.824Z,4.90
2018-08-22T08:02:01.991Z,4.60
2018-08-22T08:03:01.841Z,5.20
2018-08-22T08:04:01.806Z,4.70
2018-08-22T08:05:01.877Z,4.70
2018-08-22T08:06:01.897Z,5.30
2018-08-22T08:07:02.163Z,5.70
2018-08-22T08:08:01.916Z,4.60
2018-08-22T08:09:01.896Z,4.90
2018-08-22T08:10:01.955Z,5.00
2018-08-22T08:11:01.970Z,5.20
2018-08-22T08:12:03.768Z,4.80
2018-08-22T08:13:01.973Z,5.30
2018-08-22T08:14:01.993Z,4.40
2018-08-22T08:15:02.000Z,4.50
2018-08-22T08:16:01.981Z,4.40
2018-08-22T08:17:02.100Z,4.40
2018-08-22T08:18:02.051Z,4.90
2018-08-22T08:19:02.033Z,5.30
2018-08-22T08:20:02.892Z,4.90
2018-08-22T08:21:02.050Z,4.40
2018-08-22T08:22:02.035Z,4.70
2018-08-22T08:23:02.081Z,4.60
2018-08-22T08:24:02.770Z,4.30
2018-08-22T08:25:02.163Z,4.40
2018-08-22T08:26:02.145Z,4.00
2018-08-22T08:27:02.203Z,4.20
2018-08-22T08:28:02.143Z,4.30
2018-08-22T08:29:02.171Z,4.30
2018-08-22T08:30:02.231Z,3.90
2018-08-22T08:31:02.213Z,4.30
2018-08-22T08:32:02.228Z,4.30
2018-08-22T08:33:02.233Z,4.40
2018-08-22T08:34:02.219Z,3.80
2018-08-22T08:35:02.906Z,4.20
2018-08-22T08:36:02.277Z,4.10
2018-08-22T08:37:02.301Z,4.70
2018-08-22T08:38:02.334Z,4.30
2018-08-22T08:39:02.318Z,4.50
2018-08-22T08:40:02.286Z,3.90
2018-08-22T08:41:02.349Z,4.30
2018-08-22T08:42:02.306Z,3.90
2018-08-22T08:43:02.460Z,4.10
2018-08-22T08:44:02.395Z,3.80
2018-08-22T08:45:02.443Z,3.40
2018-08-22T08:46:02.415Z,3.50
2018-08-22T08:47:02.419Z,3.70
2018-08-22T08:48:02.479Z,4.00
2018-08-22T08:49:02.676Z,3.40
2018-08-22T08:50:02.564Z,3.50
2018-08-22T08:51:04.038Z,3.40
2018-08-22T08:52:02.494Z,4.00
2018-08-22T08:53:02.597Z,3.60
2018-08-22T08:54:04.264Z,3.70
2018-08-22T08:55:02.632Z,4.00
2018-08-22T08:56:03.419Z,4.30
2018-08-22T08:59:38.397Z,3.30
2018-08-22T09:03:04.742Z,3.60
2018-08-22T09:04:05.197Z,3.80
2018-08-22T09:06:00.487Z,4.00
2018-08-22T09:06:58.492Z,3.80
2018-08-22T09:07:58.134Z,3.60
2018-08-22T09:08:59.220Z,3.50
2018-08-22T09:09:59.199Z,3.80
2018-08-22T09:10:58.371Z,3.80
2018-08-22T09:11:58.272Z,4.00
2018-08-22T09:12:58.380Z,4.40
2018-08-22T09:13:58.332Z,4.00
2018-08-22T09:14:59.060Z,3.50
2018-08-22T09:15:59.212Z,3.70
2018-08-22T09:16:58.343Z,3.60
2018-08-22T09:17:58.371Z,3.90
2018-08-22T09:18:58.371Z,3.50
2018-08-22T09:19:59.314Z,4.10
2018-08-22T09:22:31.899Z,3.50
2018-08-22T09:23:30.958Z,3.70
2018-08-22T09:24:31.444Z,3.70
2018-08-22T09:25:30.899Z,3.90
2018-08-22T09:26:31.576Z,4.70
2018-08-22T09:27:31.117Z,3.90
2018-08-22T09:28:30.998Z,3.70
2018-08-22T09:29:31.018Z,3.50
2018-08-22T09:30:31.000Z,4.10
2018-08-22T09:31:33.639Z,4.40
2018-08-22T09:32:31.025Z,4.30
2018-08-22T09:33:31.058Z,4.10
2018-08-22T09:34:31.023Z,3.80
2018-08-22T09:35:31.091Z,4.10
2018-08-22T09:36:31.062Z,4.00
2018-08-22T09:37:31.060Z,3.90
2018-08-22T09:38:31.100Z,4.30
2018-08-22T09:39:31.264Z,4.80
2018-08-22T09:40:31.258Z,4.90
2018-08-22T09:41:31.209Z,4.00
2018-08-22T09:42:31.179Z,4.00
2018-08-22T09:43:31.235Z,4.00
2018-08-22T09:44:31.307Z,4.30
2018-08-22T09:45:31.419Z,4.30
2018-08-22T09:46:35.586Z,4.40
2018-08-22T09:48:31.996Z,4.30
2018-08-22T09:49:32.906Z,4.80
2018-08-22T09:50:31.395Z,4.20
2018-08-22T09:51:31.368Z,4.50
2018-08-22T09:52:31.402Z,4.60
2018-08-22T09:53:31.424Z,4.40
2018-08-22T09:54:31.487Z,4.00
2018-08-22T09:55:31.459Z,4.40
2018-08-22T09:56:31.456Z,4.20
2018-08-22T09:57:31.481Z,4.20
2018-08-22T09:58:31.740Z,4.00
2018-08-22T09:59:31.551Z,3.90
2018-08-22T10:00:31.747Z,4.10
2018-08-22T10:01:31.537Z,4.20
2018-08-22T10:02:31.581Z,4.30
2018-08-22T10:03:31.625Z,4.10
2018-08-22T10:04:31.595Z,4.50
2018-08-22T10:05:31.732Z,4.70
2018-08-22T10:06:31.964Z,4.20
2018-08-22T10:07:31.792Z,4.20
2018-08-22T10:08:32.273Z,4.20
2018-08-22T10:11:05.309Z,4.40
2018-08-22T10:12:05.129Z,4.40
2018-08-22T10:13:05.198Z,4.30
2018-08-22T10:14:07.777Z,4.60
2018-08-22T10:15:05.055Z,4.10
2018-08-22T10:16:05.137Z,4.20
2018-08-22T10:17:05.131Z,4.40
2018-08-22T10:18:05.207Z,4.90
2018-08-22T10:19:05.196Z,4.60
2018-08-22T10:20:05.192Z,4.50
2018-08-22T10:21:05.176Z,4.80
2018-08-22T10:22:05.224Z,4.40
2018-08-22T10:23:05.240Z,4.70
2018-08-22T10:24:05.240Z,4.20
2018-08-22T10:25:05.285Z,4.70
2018-08-22T10:26:05.243Z,4.60
2018-08-22T10:27:05.334Z,4.50
2018-08-22T10:28:05.361Z,4.60
2018-08-22T10:29:05.349Z,4.30
2018-08-22T10:30:05.349Z,4.30
2018-08-22T10:31:06.249Z,4.50
2018-08-22T10:32:05.409Z,4.80
2018-08-22T10:33:05.489Z,4.90
2018-08-22T10:34:05.463Z,5.70
2018-08-22T10:35:05.569Z,4.60
2018-08-22T10:36:05.480Z,4.90
2018-08-22T10:37:05.480Z,4.80
2018-08-22T10:38:05.495Z,4.70
2018-08-22T10:39:05.527Z,5.00
2018-08-22T10:40:05.540Z,4.40
2018-08-22T10:41:05.549Z,4.40
2018-08-22T10:42:05.592Z,4.60
2018-08-22T10:43:05.617Z,4.70
2018-08-22T10:44:05.594Z,4.60
2018-08-22T10:45:06.559Z,4.80
2018-08-22T10:46:05.768Z,4.30
2018-08-22T10:47:05.665Z,4.50
2018-08-22T10:48:06.067Z,4.20
2018-08-22T10:49:06.290Z,4.70
2018-08-22T10:50:05.788Z,4.80
2018-08-22T10:51:05.757Z,4.50
2018-08-22T10:52:05.785Z,4.30
2018-08-22T10:53:05.825Z,4.50
2018-08-22T10:54:05.820Z,5.20
2018-08-22T10:55:05.880Z,5.00
2018-08-22T10:56:05.873Z,5.20
2018-08-22T10:57:06.021Z,5.10
2018-08-22T10:58:05.875Z,4.70
2018-08-22T10:59:06.785Z,4.90
2018-08-22T11:00:05.965Z,5.40
2018-08-22T11:01:05.942Z,4.80
2018-08-22T11:02:07.062Z,4.70
2018-08-22T11:03:05.968Z,4.80
2018-08-22T11:04:06.004Z,4.70
2018-08-22T11:05:06.021Z,4.90
2018-08-22T11:06:06.066Z,5.00
2018-08-22T11:07:06.044Z,5.80
2018-08-22T11:08:06.091Z,5.20
2018-08-22T11:09:06.130Z,5.10
2018-08-22T11:10:06.271Z,5.60
2018-08-22T11:11:06.076Z,4.90
2018-08-22T11:12:06.089Z,5.30
2018-08-22T11:13:06.121Z,5.00
2018-08-22T11:14:06.229Z,5.00
2018-08-22T11:15:06.136Z,5.60
2018-08-22T11:16:06.235Z,5.00
2018-08-22T11:17:06.250Z,5.40
2018-08-22T11:18:06.221Z,5.10
2018-08-22T11:19:06.204Z,5.50
2018-08-22T11:20:06.279Z,5.50
2018-08-22T11:21:07.917Z,5.40
2018-08-22T11:22:06.263Z,5.80
2018-08-22T11:23:06.286Z,5.90
2018-08-22T11:24:06.317Z,6.00
2018-08-22T11:25:09.957Z,5.10
2018-08-22T11:26:06.434Z,5.50
2018-08-22T11:27:06.352Z,5.50
2018-08-22T11:28:06.399Z,6.00
2018-08-22T11:29:06.394Z,6.20
2018-08-22T11:30:07.022Z,5.80
2018-08-22T11:31:06.398Z,7.80
2018-08-22T11:32:06.425Z,7.50
2018-08-22T11:33:06.452Z,6.80
2018-08-22T11:34:06.583Z,5.30
2018-08-22T11:35:06.452Z,6.70
2018-08-22T11:36:06.500Z,5.40
2018-08-22T11:37:06.501Z,5.40
2018-08-22T11:38:06.524Z,6.00
2018-08-22T11:39:06.513Z,5.90
2018-08-22T11:40:06.490Z,5.60
2018-08-22T11:41:06.493Z,5.70
2018-08-22T11:42:06.944Z,5.80
2018-08-22T11:43:06.543Z,5.70
2018-08-22T11:44:06.678Z,5.50
2018-08-22T11:45:06.632Z,5.50
2018-08-22T11:46:07.547Z,5.90
2018-08-22T11:47:06.660Z,5.50
2018-08-22T11:48:06.615Z,5.10
2018-08-22T11:49:06.594Z,5.70
2018-08-22T11:50:06.759Z,5.60
2018-08-22T11:51:06.745Z,6.30
2018-08-22T11:52:06.671Z,5.80
2018-08-22T11:53:06.677Z,6.00
2018-08-22T11:54:06.866Z,5.90
2018-08-22T11:55:06.767Z,5.60
2018-08-22T11:56:06.832Z,5.40
2018-08-22T11:57:06.716Z,5.80
2018-08-22T11:58:06.756Z,5.50
2018-08-22T11:59:08.959Z,5.60
2018-08-22T12:00:06.790Z,5.90
2018-08-22T12:01:06.730Z,6.00
2018-08-22T12:02:06.836Z,6.60
2018-08-22T12:03:06.748Z,9.90
2018-08-22T12:04:06.821Z,6.60
2018-08-22T12:05:06.793Z,6.90
2018-08-22T12:06:06.819Z,9.40
2018-08-22T12:07:06.800Z,5.90
2018-08-22T12:08:06.889Z,6.30
2018-08-22T12:09:06.847Z,6.40
2018-08-22T12:10:06.890Z,5.90
2018-08-22T12:11:06.941Z,5.90
2018-08-22T12:12:07.507Z,5.70
2018-08-22T12:13:06.958Z,6.50
2018-08-22T12:14:06.923Z,6.20
2018-08-22T12:15:06.897Z,6.60
2018-08-22T12:16:06.915Z,6.10
2018-08-22T12:17:06.910Z,5.90
2018-08-22T12:18:06.899Z,5.80
2018-08-22T12:19:07.099Z,5.60
2018-08-22T12:20:07.001Z,5.60
2018-08-22T12:21:06.966Z,6.10
2018-08-22T12:22:06.972Z,5.70
2018-08-22T12:23:07.080Z,6.40
2018-08-22T12:24:06.932Z,5.70
2018-08-22T12:25:07.188Z,6.40
2018-08-22T12:26:06.998Z,6.80
2018-08-22T12:27:07.054Z,6.70
2018-08-22T12:28:07.045Z,6.30
2018-08-22T12:29:07.023Z,5.80
2018-08-22T12:30:07.110Z,5.80
2018-08-22T12:31:07.059Z,5.60
2018-08-22T12:32:07.858Z,6.60
2018-08-22T12:33:07.123Z,5.90
2018-08-22T12:34:07.096Z,5.80
2018-08-22T12:35:07.126Z,5.60
2018-08-22T12:36:07.091Z,6.50
2018-08-22T12:37:07.105Z,6.10
2018-08-22T12:38:07.117Z,6.00
2018-08-22T12:39:07.126Z,5.90
2018-08-22T12:40:07.910Z,6.30
2018-08-22T12:41:07.118Z,6.00
2018-08-22T12:42:10.007Z,5.70
2018-08-22T12:43:07.236Z,5.90
2018-08-22T12:44:07.193Z,5.90
2018-08-22T12:45:07.197Z,6.00
2018-08-22T12:46:07.241Z,7.40
2018-08-22T12:47:07.419Z,6.90
2018-08-22T12:48:07.237Z,7.20
2018-08-22T12:49:07.213Z,7.00
2018-08-22T12:50:07.316Z,6.20
2018-08-22T12:51:08.522Z,5.30
2018-08-22T12:52:08.997Z,5.70
2018-08-22T12:53:07.300Z,6.30
2018-08-22T12:54:07.260Z,6.50
2018-08-22T12:55:07.363Z,6.40
2018-08-22T12:56:07.311Z,5.70
2018-08-22T12:57:07.340Z,6.30
2018-08-22T12:58:07.395Z,6.10
2018-08-22T12:59:07.330Z,7.40
2018-08-22T13:00:07.432Z,5.90
2018-08-22T13:01:07.309Z,6.30
2018-08-22T13:02:07.363Z,6.30
2018-08-22T13:03:07.317Z,6.30
2018-08-22T13:04:07.403Z,6.00
2018-08-22T13:05:07.409Z,6.20
2018-08-22T13:06:08.366Z,5.70
2018-08-22T13:07:07.508Z,6.10
2018-08-22T13:08:07.413Z,6.10
2018-08-22T13:09:07.456Z,6.30
2018-08-22T13:10:07.421Z,5.50
2018-08-22T13:11:07.779Z,6.30
2018-08-22T13:12:07.469Z,6.20
2018-08-22T13:13:07.463Z,5.70
2018-08-22T13:14:07.461Z,5.80
2018-08-22T13:15:07.462Z,6.00
2018-08-22T13:16:07.445Z,6.00
2018-08-22T13:17:07.547Z,6.50
2018-08-22T13:18:07.511Z,8.10
2018-08-22T13:19:07.622Z,6.40
2018-08-22T13:20:07.515Z,6.30
2018-08-22T13:21:08.382Z,6.50
2018-08-22T13:22:07.712Z,6.40
2018-08-22T13:23:07.641Z,6.50
2018-08-22T13:24:07.624Z,6.10
2018-08-22T13:25:07.679Z,5.80
2018-08-22T13:26:07.527Z,6.20
2018-08-22T13:27:07.560Z,6.30
2018-08-22T13:28:07.582Z,6.10